Ravels, Belgium
Current Conditions -  °F | °C
As of 2:25 AM on Wednesday 22 Oct 2014 (Local Time) from EHGR Reporting Station
Broken Clouds Broken Clouds  
Wind Chill: 40°   Ceiling: 6100
Heat Index: 46°   Visibility: 6mi
Dew Point: 41°   Wind: 15mph
Humidity: 81%   Direction: 280°W
Pressure: 29.91"   Gusts: NA
Location:  51.37°N, 4.99°E
Report Text: EHGR 220025Z AUTO 28013KT 9999 R28/2700 FEW015TCU SCT048 BKN061 08/05 Q1013 BLU 29019G32KT 9999 SCT020 SCT030 TEMPO 27028G40KT 3500 SHRA SCT010 BKN015CB
Loading
Personal Weather Stations






























Interactive Weather Map New forecast layout! Learn more

10-Day Weather Forecast

Advertisements
Track Severe Weather on mobile